sensor_id;sensor_type;location;lat;lon;timestamp;pressure;altitude;pressure_sealevel;temperature;humidity
62703;BME280;66022;50.448;18.122;2023-05-22T00:03:39;99368.98;;;16.55;59.55
62703;BME280;66022;50.448;18.122;2023-05-22T00:07:51;99365.39;;;16.49;59.73
62703;BME280;66022;50.448;18.122;2023-05-22T00:12:03;99362.13;;;16.45;59.21
62703;BME280;66022;50.448;18.122;2023-05-22T00:16:15;99359.50;;;16.41;58.95
62703;BME280;66022;50.448;18.122;2023-05-22T00:20:27;99355.55;;;16.38;58.44
62703;BME280;66022;50.448;18.122;2023-05-22T00:24:39;99352.39;;;16.36;58.72
62703;BME280;66022;50.448;18.122;2023-05-22T00:28:51;99350.34;;;16.33;58.38
62703;BME280;66022;50.448;18.122;2023-05-22T00:33:03;99348.24;;;16.33;57.87
62703;BME280;66022;50.448;18.122;2023-05-22T00:37:15;99347.14;;;16.30;58.72
62703;BME280;66022;50.448;18.122;2023-05-22T00:41:27;99345.95;;;16.29;58.19
62703;BME280;66022;50.448;18.122;2023-05-22T00:45:39;99344.55;;;16.26;58.21
62703;BME280;66022;50.448;18.122;2023-05-22T00:49:51;99342.02;;;16.22;57.83
62703;BME280;66022;50.448;18.122;2023-05-22T00:54:03;99339.43;;;16.19;57.72
62703;BME280;66022;50.448;18.122;2023-05-22T00:58:18;99335.69;;;16.15;56.87
62703;BME280;66022;50.448;18.122;2023-05-22T01:02:27;99332.70;;;16.14;57.17
62703;BME280;66022;50.448;18.122;2023-05-22T01:06:39;99330.31;;;16.11;55.48
62703;BME280;66022;50.448;18.122;2023-05-22T01:10:51;99327.29;;;16.10;56.37
62703;BME280;66022;50.448;18.122;2023-05-22T01:27:49;99319.12;;;16.05;55.79
62703;BME280;66022;50.448;18.122;2023-05-22T01:31:51;99316.42;;;16.04;56.09
62703;BME280;66022;50.448;18.122;2023-05-22T01:36:03;99315.97;;;16.03;56.24
62703;BME280;66022;50.448;18.122;2023-05-22T01:40:15;99315.80;;;16.01;55.49
62703;BME280;66022;50.448;18.122;2023-05-22T01:44:27;99315.95;;;16.00;55.46
62703;BME280;66022;50.448;18.122;2023-05-22T01:48:39;99315.84;;;15.96;55.45
62703;BME280;66022;50.448;18.122;2023-05-22T02:01:15;99318.41;;;15.89;54.65
62703;BME280;66022;50.448;18.122;2023-05-22T02:05:27;99318.50;;;15.87;54.57
62703;BME280;66022;50.448;18.122;2023-05-22T02:09:39;99317.61;;;15.85;54.65
62703;BME280;66022;50.448;18.122;2023-05-22T02:13:51;99316.58;;;15.83;54.45
62703;BME280;66022;50.448;18.122;2023-05-22T02:18:08;99314.76;;;15.80;54.47
62703;BME280;66022;50.448;18.122;2023-05-22T02:22:15;99313.81;;;15.79;54.46
62703;BME280;66022;50.448;18.122;2023-05-22T02:26:27;99313.33;;;15.76;53.90
62703;BME280;66022;50.448;18.122;2023-05-22T02:30:39;99311.96;;;15.74;53.96
62703;BME280;66022;50.448;18.122;2023-05-22T02:34:51;99311.41;;;15.72;54.82
62703;BME280;66022;50.448;18.122;2023-05-22T02:39:03;99310.19;;;15.67;54.73
62703;BME280;66022;50.448;18.122;2023-05-22T02:43:15;99309.30;;;15.64;54.68
62703;BME280;66022;50.448;18.122;2023-05-22T02:47:27;99307.37;;;15.59;55.01
62703;BME280;66022;50.448;18.122;2023-05-22T02:51:39;99305.58;;;15.56;55.48
62703;BME280;66022;50.448;18.122;2023-05-22T02:55:51;99303.56;;;15.51;55.67
62703;BME280;66022;50.448;18.122;2023-05-22T03:00:03;99301.67;;;15.46;55.92
62703;BME280;66022;50.448;18.122;2023-05-22T03:04:15;99300.10;;;15.41;55.64
62703;BME280;66022;50.448;18.122;2023-05-22T03:08:27;99299.88;;;15.36;56.12
62703;BME280;66022;50.448;18.122;2023-05-22T03:12:39;99300.32;;;15.33;55.72
62703;BME280;66022;50.448;18.122;2023-05-22T03:16:51;99301.57;;;15.28;56.16
62703;BME280;66022;50.448;18.122;2023-05-22T03:21:03;99301.48;;;15.26;55.95
62703;BME280;66022;50.448;18.122;2023-05-22T03:25:15;99301.08;;;15.25;56.06
62703;BME280;66022;50.448;18.122;2023-05-22T03:29:27;99301.54;;;15.24;55.93
62703;BME280;66022;50.448;18.122;2023-05-22T03:33:39;99301.65;;;15.26;55.42
62703;BME280;66022;50.448;18.122;2023-05-22T03:37:51;99301.64;;;15.28;55.62
62703;BME280;66022;50.448;18.122;2023-05-22T03:42:03;99302.62;;;15.33;56.20
62703;BME280;66022;50.448;18.122;2023-05-22T03:46:15;99303.31;;;15.39;55.38
62703;BME280;66022;50.448;18.122;2023-05-22T03:50:27;99304.27;;;15.46;55.22
62703;BME280;66022;50.448;18.122;2023-05-22T03:54:39;99306.20;;;15.55;55.18
62703;BME280;66022;50.448;18.122;2023-05-22T03:58:51;99308.03;;;15.62;55.19
62703;BME280;66022;50.448;18.122;2023-05-22T04:03:03;99309.73;;;15.74;55.07
62703;BME280;66022;50.448;18.122;2023-05-22T04:07:15;99309.97;;;15.87;54.97
62703;BME280;66022;50.448;18.122;2023-05-22T04:11:27;99310.82;;;16.03;56.89
62703;BME280;66022;50.448;18.122;2023-05-22T04:15:39;99311.02;;;16.19;58.73
62703;BME280;66022;50.448;18.122;2023-05-22T04:19:51;99310.71;;;16.36;57.46
62703;BME280;66022;50.448;18.122;2023-05-22T04:24:03;99309.37;;;16.56;57.36
62703;BME280;66022;50.448;18.122;2023-05-22T04:28:15;99308.17;;;16.71;58.54
62703;BME280;66022;50.448;18.122;2023-05-22T04:32:27;99306.80;;;16.85;57.61
62703;BME280;66022;50.448;18.122;2023-05-22T04:36:39;99305.28;;;16.94;57.65
62703;BME280;66022;50.448;18.122;2023-05-22T04:40:51;99302.34;;;17.38;54.25
62703;BME280;66022;50.448;18.122;2023-05-22T04:45:03;99300.34;;;18.47;48.68
62703;BME280;66022;50.448;18.122;2023-05-22T04:49:15;99297.03;;;19.59;46.30
62703;BME280;66022;50.448;18.122;2023-05-22T04:53:27;99295.36;;;20.82;43.73
62703;BME280;66022;50.448;18.122;2023-05-22T04:57:39;99294.42;;;22.15;41.12
62703;BME280;66022;50.448;18.122;2023-05-22T05:01:51;99293.19;;;23.53;39.24
62703;BME280;66022;50.448;18.122;2023-05-22T05:06:03;99291.96;;;24.89;38.66
62703;BME280;66022;50.448;18.122;2023-05-22T05:10:15;99290.23;;;26.18;36.71
62703;BME280;66022;50.448;18.122;2023-05-22T05:14:27;99288.79;;;27.34;35.70
62703;BME280;66022;50.448;18.122;2023-05-22T05:18:39;99287.62;;;28.23;33.46
62703;BME280;66022;50.448;18.122;2023-05-22T05:22:51;99286.95;;;29.18;30.83
62703;BME280;66022;50.448;18.122;2023-05-22T05:27:03;99286.86;;;29.79;29.22
62703;BME280;66022;50.448;18.122;2023-05-22T05:31:15;99287.27;;;30.29;33.63
62703;BME280;66022;50.448;18.122;2023-05-22T05:35:27;99287.65;;;30.74;34.21
62703;BME280;66022;50.448;18.122;2023-05-22T05:39:39;99288.33;;;30.99;30.94
62703;BME280;66022;50.448;18.122;2023-05-22T05:43:51;99288.70;;;31.19;34.52
62703;BME280;66022;50.448;18.122;2023-05-22T05:48:03;99288.17;;;31.17;32.77
62703;BME280;66022;50.448;18.122;2023-05-22T05:52:15;99288.93;;;31.14;32.06
62703;BME280;66022;50.448;18.122;2023-05-22T05:56:27;99290.16;;;31.01;28.15
62703;BME280;66022;50.448;18.122;2023-05-22T06:00:39;99290.52;;;30.84;31.56
62703;BME280;66022;50.448;18.122;2023-05-22T06:04:51;99291.71;;;30.63;35.97
62703;BME280;66022;50.448;18.122;2023-05-22T06:09:03;99290.92;;;30.15;35.29
62703;BME280;66022;50.448;18.122;2023-05-22T06:13:15;99290.59;;;29.71;36.92
62703;BME280;66022;50.448;18.122;2023-05-22T06:17:27;99290.20;;;29.12;34.35
62703;BME280;66022;50.448;18.122;2023-05-22T06:21:39;99289.97;;;28.62;38.22
62703;BME280;66022;50.448;18.122;2023-05-22T06:25:51;99288.62;;;28.29;37.47
62703;BME280;66022;50.448;18.122;2023-05-22T06:30:03;99288.22;;;27.94;39.21
